sensor_id;sensor_type;location;lat;lon;timestamp;pressure;altitude;pressure_sealevel;temperature;humidity
50710;BME280;37033;49.994;21.992;2023-02-19T00:00:20;98816.05;;;5.90;88.11
50710;BME280;37033;49.994;21.992;2023-02-19T00:03:30;98817.27;;;5.89;87.89
50710;BME280;37033;49.994;21.992;2023-02-19T00:06:20;98815.03;;;5.87;87.82
50710;BME280;37033;49.994;21.992;2023-02-19T00:09:11;98806.80;;;5.86;87.75
50710;BME280;37033;49.994;21.992;2023-02-19T00:12:01;98815.09;;;5.85;87.60
50710;BME280;37033;49.994;21.992;2023-02-19T00:14:51;98812.72;;;5.83;87.48
50710;BME280;37033;49.994;21.992;2023-02-19T00:17:42;98821.52;;;5.82;87.41
50710;BME280;37033;49.994;21.992;2023-02-19T00:20:31;98821.27;;;5.80;87.31
50710;BME280;37033;49.994;21.992;2023-02-19T00:23:20;98825.64;;;5.79;87.32
50710;BME280;37033;49.994;21.992;2023-02-19T00:26:11;98814.11;;;5.78;87.29
50710;BME280;37033;49.994;21.992;2023-02-19T00:29:01;98823.70;;;5.77;87.26
50710;BME280;37033;49.994;21.992;2023-02-19T00:31:51;98841.19;;;5.75;87.17
50710;BME280;37033;49.994;21.992;2023-02-19T00:34:40;98846.23;;;5.72;87.08
50710;BME280;37033;49.994;21.992;2023-02-19T00:37:30;98848.01;;;5.69;86.99
50710;BME280;37033;49.994;21.992;2023-02-19T00:40:19;98844.34;;;5.66;86.74
50710;BME280;37033;49.994;21.992;2023-02-19T00:43:10;98842.20;;;5.61;86.65
50710;BME280;37033;49.994;21.992;2023-02-19T00:45:59;98842.05;;;5.56;86.74
50710;BME280;37033;49.994;21.992;2023-02-19T00:48:49;98843.91;;;5.51;86.82
50710;BME280;37033;49.994;21.992;2023-02-19T00:51:39;98848.02;;;5.48;86.86
50710;BME280;37033;49.994;21.992;2023-02-19T00:54:29;98843.82;;;5.43;86.97
50710;BME280;37033;49.994;21.992;2023-02-19T00:57:19;98838.24;;;5.36;87.06
50710;BME280;37033;49.994;21.992;2023-02-19T01:00:11;98851.05;;;5.31;87.21
50710;BME280;37033;49.994;21.992;2023-02-19T01:03:01;98848.16;;;5.25;87.13
50710;BME280;37033;49.994;21.992;2023-02-19T01:05:51;98841.36;;;5.20;87.04
50710;BME280;37033;49.994;21.992;2023-02-19T01:08:40;98845.80;;;5.16;86.95
50710;BME280;37033;49.994;21.992;2023-02-19T01:11:30;98839.40;;;5.11;86.96
50710;BME280;37033;49.994;21.992;2023-02-19T01:14:20;98839.36;;;5.07;86.58
50710;BME280;37033;49.994;21.992;2023-02-19T01:17:09;98824.89;;;5.02;85.87
50710;BME280;37033;49.994;21.992;2023-02-19T01:19:58;98821.90;;;4.97;85.57
50710;BME280;37033;49.994;21.992;2023-02-19T01:22:48;98824.52;;;4.92;85.66
50710;BME280;37033;49.994;21.992;2023-02-19T01:25:40;98829.84;;;4.89;85.53
50710;BME280;37033;49.994;21.992;2023-02-19T01:28:30;98825.96;;;4.85;85.35
50710;BME280;37033;49.994;21.992;2023-02-19T01:31:21;98814.34;;;4.82;85.42
50710;BME280;37033;49.994;21.992;2023-02-19T01:34:11;98815.08;;;4.79;85.34
50710;BME280;37033;49.994;21.992;2023-02-19T01:37:01;98813.02;;;4.76;85.37
50710;BME280;37033;49.994;21.992;2023-02-19T01:39:51;98824.27;;;4.73;85.28
50710;BME280;37033;49.994;21.992;2023-02-19T01:42:43;98829.71;;;4.69;85.27
50710;BME280;37033;49.994;21.992;2023-02-19T01:45:33;98831.41;;;4.67;85.23
50710;BME280;37033;49.994;21.992;2023-02-19T01:48:26;98846.27;;;4.64;85.26
50710;BME280;37033;49.994;21.992;2023-02-19T01:51:18;98839.05;;;4.61;85.29
50710;BME280;37033;49.994;21.992;2023-02-19T01:54:10;98837.20;;;4.59;85.22
50710;BME280;37033;49.994;21.992;2023-02-19T01:57:03;98837.33;;;4.56;85.29
50710;BME280;37033;49.994;21.992;2023-02-19T01:59:55;98839.42;;;4.54;85.26
50710;BME280;37033;49.994;21.992;2023-02-19T02:02:50;98837.58;;;4.52;85.38
50710;BME280;37033;49.994;21.992;2023-02-19T02:05:49;98831.62;;;4.49;85.31
50710;BME280;37033;49.994;21.992;2023-02-19T02:08:42;98832.95;;;4.48;85.40
50710;BME280;37033;49.994;21.992;2023-02-19T02:11:51;98833.34;;;4.46;85.43
50710;BME280;37033;49.994;21.992;2023-02-19T02:14:44;98822.16;;;4.44;85.50
50710;BME280;37033;49.994;21.992;2023-02-19T02:17:38;98819.44;;;4.43;85.51
50710;BME280;37033;49.994;21.992;2023-02-19T02:20:35;98812.37;;;4.41;85.51
50710;BME280;37033;49.994;21.992;2023-02-19T02:23:43;98804.61;;;4.38;85.54
50710;BME280;37033;49.994;21.992;2023-02-19T02:26:47;98795.25;;;4.36;85.51
50710;BME280;37033;49.994;21.992;2023-02-19T02:30:02;98784.64;;;4.34;85.59
50710;BME280;37033;49.994;21.992;2023-02-19T02:32:59;98791.64;;;4.31;85.55
50710;BME280;37033;49.994;21.992;2023-02-19T02:35:53;98790.09;;;4.27;85.63
50710;BME280;37033;49.994;21.992;2023-02-19T02:38:46;98790.73;;;4.24;85.72
50710;BME280;37033;49.994;21.992;2023-02-19T02:41:42;98794.48;;;4.20;85.76
50710;BME280;37033;49.994;21.992;2023-02-19T02:44:36;98797.26;;;4.17;85.76
50710;BME280;37033;49.994;21.992;2023-02-19T02:47:26;98804.10;;;4.14;85.85
50710;BME280;37033;49.994;21.992;2023-02-19T02:50:33;98807.39;;;4.11;85.83
50710;BME280;37033;49.994;21.992;2023-02-19T02:53:29;98822.66;;;4.09;85.96
50710;BME280;37033;49.994;21.992;2023-02-19T02:56:40;98829.88;;;4.07;85.94
50710;BME280;37033;49.994;21.992;2023-02-19T02:59:34;98825.83;;;4.06;85.85
50710;BME280;37033;49.994;21.992;2023-02-19T03:02:27;98832.91;;;4.04;85.83
50710;BME280;37033;49.994;21.992;2023-02-19T03:05:21;98831.01;;;4.04;85.94
50710;BME280;37033;49.994;21.992;2023-02-19T03:08:31;98828.69;;;4.03;85.98
50710;BME280;37033;49.994;21.992;2023-02-19T03:11:24;98817.73;;;4.01;85.86
50710;BME280;37033;49.994;21.992;2023-02-19T03:14:36;98816.20;;;4.01;85.89
50710;BME280;37033;49.994;21.992;2023-02-19T03:17:49;98813.73;;;4.01;85.88
50710;BME280;37033;49.994;21.992;2023-02-19T03:20:58;98815.71;;;4.00;85.76
50710;BME280;37033;49.994;21.992;2023-02-19T03:23:49;98824.40;;;4.00;85.73
50710;BME280;37033;49.994;21.992;2023-02-19T03:26:58;98832.63;;;4.00;85.71
50710;BME280;37033;49.994;21.992;2023-02-19T03:29:52;98828.90;;;3.98;85.67
50710;BME280;37033;49.994;21.992;2023-02-19T03:32:47;98842.73;;;3.98;85.66
50710;BME280;37033;49.994;21.992;2023-02-19T03:35:40;98850.77;;;3.97;85.61
50710;BME280;37033;49.994;21.992;2023-02-19T03:38:38;98848.70;;;3.96;85.60
50710;BME280;37033;49.994;21.992;2023-02-19T03:41:34;98845.60;;;3.97;85.61
50710;BME280;37033;49.994;21.992;2023-02-19T03:44:28;98839.34;;;3.98;85.58
50710;BME280;37033;49.994;21.992;2023-02-19T03:47:24;98839.88;;;3.98;85.52
50710;BME280;37033;49.994;21.992;2023-02-19T03:50:18;98839.34;;;3.98;85.51
50710;BME280;37033;49.994;21.992;2023-02-19T03:53:14;98843.27;;;3.98;85.43
50710;BME280;37033;49.994;21.992;2023-02-19T03:56:09;98846.25;;;3.99;85.45
50710;BME280;37033;49.994;21.992;2023-02-19T03:59:07;98843.44;;;3.98;85.42
50710;BME280;37033;49.994;21.992;2023-02-19T04:02:01;98839.55;;;3.98;85.38
50710;BME280;37033;49.994;21.992;2023-02-19T04:04:57;98835.86;;;3.97;85.41
50710;BME280;37033;49.994;21.992;2023-02-19T04:07:53;98831.32;;;3.96;85.29
50710;BME280;37033;49.994;21.992;2023-02-19T04:10:46;98835.75;;;3.95;85.22
50710;BME280;37033;49.994;21.992;2023-02-19T04:13:39;98841.80;;;3.94;85.24
50710;BME280;37033;49.994;21.992;2023-02-19T04:16:34;98841.20;;;3.93;85.21
50710;BME280;37033;49.994;21.992;2023-02-19T04:19:26;98835.85;;;3.92;85.17
50710;BME280;37033;49.994;21.992;2023-02-19T04:22:19;98828.06;;;3.91;85.23
50710;BME280;37033;49.994;21.992;2023-02-19T04:25:11;98829.77;;;3.89;85.14
50710;BME280;37033;49.994;21.992;2023-02-19T04:28:01;98836.15;;;3.89;85.12
50710;BME280;37033;49.994;21.992;2023-02-19T04:30:51;98824.69;;;3.88;85.13
50710;BME280;37033;49.994;21.992;2023-02-19T04:33:40;98833.95;;;3.89;85.12
50710;BME280;37033;49.994;21.992;2023-02-19T04:36:30;98825.59;;;3.90;85.10
50710;BME280;37033;49.994;21.992;2023-02-19T04:39:19;98833.74;;;3.89;85.11
50710;BME280;37033;49.994;21.992;2023-02-19T04:42:10;98827.66;;;3.88;85.03
50710;BME280;37033;49.994;21.992;2023-02-19T04:45:01;98824.16;;;3.87;85.19
50710;BME280;37033;49.994;21.992;2023-02-19T04:47:50;98824.83;;;3.86;85.22
50710;BME280;37033;49.994;21.992;2023-02-19T04:50:40;98830.70;;;3.85;85.17
50710;BME280;37033;49.994;21.992;2023-02-19T04:53:29;98833.64;;;3.85;85.09
50710;BME280;37033;49.994;21.992;2023-02-19T04:56:21;98832.97;;;3.86;85.12
50710;BME280;37033;49.994;21.992;2023-02-19T04:59:11;98834.30;;;3.85;85.14
50710;BME280;37033;49.994;21.992;2023-02-19T05:02:01;98833.65;;;3.85;85.14
50710;BME280;37033;49.994;21.992;2023-02-19T05:04:50;98834.76;;;3.85;85.12
50710;BME280;37033;49.994;21.992;2023-02-19T05:07:40;98839.89;;;3.84;85.13
50710;BME280;37033;49.994;21.992;2023-02-19T05:10:30;98839.09;;;3.83;85.11
50710;BME280;37033;49.994;21.992;2023-02-19T05:13:20;98845.71;;;3.83;85.21
50710;BME280;37033;49.994;21.992;2023-02-19T05:16:12;98841.12;;;3.84;85.19
50710;BME280;37033;49.994;21.992;2023-02-19T05:19:03;98841.46;;;3.84;85.13
50710;BME280;37033;49.994;21.992;2023-02-19T05:21:52;98836.79;;;3.84;85.12
50710;BME280;37033;49.994;21.992;2023-02-19T05:24:42;98836.34;;;3.85;85.07
50710;BME280;37033;49.994;21.992;2023-02-19T05:27:32;98832.32;;;3.85;85.10
50710;BME280;37033;49.994;21.992;2023-02-19T05:30:21;98827.80;;;3.85;85.22
50710;BME280;37033;49.994;21.992;2023-02-19T05:33:11;98824.62;;;3.86;85.13
50710;BME280;37033;49.994;21.992;2023-02-19T05:36:06;98817.79;;;3.87;85.23
50710;BME280;37033;49.994;21.992;2023-02-19T05:38:57;98814.55;;;3.86;85.17
50710;BME280;37033;49.994;21.992;2023-02-19T05:41:46;98809.18;;;3.87;85.25
50710;BME280;37033;49.994;21.992;2023-02-19T05:44:36;98811.63;;;3.87;85.24
50710;BME280;37033;49.994;21.992;2023-02-19T05:47:26;98810.80;;;3.87;85.22
50710;BME280;37033;49.994;21.992;2023-02-19T05:50:15;98810.05;;;3.87;85.30
50710;BME280;37033;49.994;21.992;2023-02-19T05:53:06;98810.92;;;3.87;85.38
50710;BME280;37033;49.994;21.992;2023-02-19T05:55:55;98808.67;;;3.88;85.40
50710;BME280;37033;49.994;21.992;2023-02-19T05:58:44;98806.36;;;3.88;85.50
50710;BME280;37033;49.994;21.992;2023-02-19T06:01:35;98811.83;;;3.87;85.57
50710;BME280;37033;49.994;21.992;2023-02-19T06:04:25;98810.01;;;3.87;85.69
50710;BME280;37033;49.994;21.992;2023-02-19T06:07:15;98802.73;;;3.87;85.60
50710;BME280;37033;49.994;21.992;2023-02-19T06:10:05;98796.53;;;3.85;85.61
50710;BME280;37033;49.994;21.992;2023-02-19T06:12:55;98799.06;;;3.82;85.66
50710;BME280;37033;49.994;21.992;2023-02-19T06:15:45;98798.73;;;3.79;85.65
50710;BME280;37033;49.994;21.992;2023-02-19T06:18:35;98793.45;;;3.77;85.77
50710;BME280;37033;49.994;21.992;2023-02-19T06:21:24;98793.55;;;3.76;85.87
50710;BME280;37033;49.994;21.992;2023-02-19T06:24:14;98785.02;;;3.76;85.91
50710;BME280;37033;49.994;21.992;2023-02-19T06:27:05;98784.45;;;3.73;86.11
50710;BME280;37033;49.994;21.992;2023-02-19T06:29:55;98780.16;;;3.71;86.11
50710;BME280;37033;49.994;21.992;2023-02-19T06:32:45;98777.88;;;3.69;86.19
50710;BME280;37033;49.994;21.992;2023-02-19T06:35:35;98775.77;;;3.69;86.42
50710;BME280;37033;49.994;21.992;2023-02-19T06:38:24;98775.00;;;3.69;86.50
50710;BME280;37033;49.994;21.992;2023-02-19T06:41:15;98770.77;;;3.69;86.49
50710;BME280;37033;49.994;21.992;2023-02-19T06:44:05;98762.80;;;3.68;86.63
50710;BME280;37033;49.994;21.992;2023-02-19T06:46:56;98759.49;;;3.67;86.67
50710;BME280;37033;49.994;21.992;2023-02-19T06:49:45;98756.14;;;3.68;86.73
50710;BME280;37033;49.994;21.992;2023-02-19T06:52:35;98752.41;;;3.69;86.94
50710;BME280;37033;49.994;21.992;2023-02-19T06:55:25;98752.98;;;3.69;86.91
50710;BME280;37033;49.994;21.992;2023-02-19T06:58:14;98752.64;;;3.68;87.04
50710;BME280;37033;49.994;21.992;2023-02-19T07:01:04;98749.94;;;3.69;87.17
50710;BME280;37033;49.994;21.992;2023-02-19T07:03:54;98743.36;;;3.70;87.17
50710;BME280;37033;49.994;21.992;2023-02-19T07:06:44;98743.73;;;3.71;87.30
50710;BME280;37033;49.994;21.992;2023-02-19T07:09:33;98743.13;;;3.73;87.48
50710;BME280;37033;49.994;21.992;2023-02-19T07:12:23;98741.20;;;3.74;87.46
50710;BME280;37033;49.994;21.992;2023-02-19T07:15:12;98739.58;;;3.75;87.58
50710;BME280;37033;49.994;21.992;2023-02-19T07:18:02;98738.33;;;3.76;87.67
50710;BME280;37033;49.994;21.992;2023-02-19T07:20:56;98735.42;;;3.79;87.77
50710;BME280;37033;49.994;21.992;2023-02-19T07:23:49;98731.20;;;3.80;87.97
50710;BME280;37033;49.994;21.992;2023-02-19T07:26:39;98733.13;;;3.83;88.14
50710;BME280;37033;49.994;21.992;2023-02-19T07:29:29;98733.08;;;3.86;88.13
50710;BME280;37033;49.994;21.992;2023-02-19T07:32:18;98735.30;;;3.88;88.25
50710;BME280;37033;49.994;21.992;2023-02-19T07:35:08;98739.42;;;3.92;88.26
50710;BME280;37033;49.994;21.992;2023-02-19T07:37:58;98736.29;;;3.96;88.31
50710;BME280;37033;49.994;21.992;2023-02-19T07:40:52;98737.81;;;3.98;88.39
50710;BME280;37033;49.994;21.992;2023-02-19T07:43:42;98733.30;;;4.00;88.32
50710;BME280;37033;49.994;21.992;2023-02-19T07:46:32;98730.05;;;4.02;88.43
50710;BME280;37033;49.994;21.992;2023-02-19T07:49:21;98725.38;;;4.04;88.43
50710;BME280;37033;49.994;21.992;2023-02-19T07:52:11;98713.86;;;4.06;88.55
50710;BME280;37033;49.994;21.992;2023-02-19T07:55:00;98711.09;;;4.06;88.71
50710;BME280;37033;49.994;21.992;2023-02-19T07:57:50;98711.33;;;4.08;88.71
50710;BME280;37033;49.994;21.992;2023-02-19T08:00:40;98708.17;;;4.10;88.84
50710;BME280;37033;49.994;21.992;2023-02-19T08:03:29;98708.89;;;4.13;88.99
50710;BME280;37033;49.994;21.992;2023-02-19T08:06:19;98708.58;;;4.18;89.09
50710;BME280;37033;49.994;21.992;2023-02-19T08:09:09;98712.56;;;4.21;89.17
50710;BME280;37033;49.994;21.992;2023-02-19T08:11:59;98715.27;;;4.25;89.38
50710;BME280;37033;49.994;21.992;2023-02-19T08:15:07;98714.55;;;4.29;89.38
50710;BME280;37033;49.994;21.992;2023-02-19T08:17:57;98715.76;;;4.33;89.31
50710;BME280;37033;49.994;21.992;2023-02-19T08:20:47;98714.02;;;4.37;89.34
50710;BME280;37033;49.994;21.992;2023-02-19T08:23:36;98715.08;;;4.42;89.52
50710;BME280;37033;49.994;21.992;2023-02-19T08:26:27;98708.73;;;4.48;89.77
50710;BME280;37033;49.994;21.992;2023-02-19T08:29:16;98705.38;;;4.54;90.03
50710;BME280;37033;49.994;21.992;2023-02-19T08:32:06;98706.98;;;4.61;90.05
50710;BME280;37033;49.994;21.992;2023-02-19T08:34:55;98709.56;;;4.65;90.17
50710;BME280;37033;49.994;21.992;2023-02-19T08:37:45;98702.80;;;4.70;90.28
50710;BME280;37033;49.994;21.992;2023-02-19T08:40:36;98706.56;;;4.75;90.38
50710;BME280;37033;49.994;21.992;2023-02-19T08:43:26;98706.65;;;4.81;90.64
50710;BME280;37033;49.994;21.992;2023-02-19T08:46:15;98711.16;;;4.87;91.03
50710;BME280;37033;49.994;21.992;2023-02-19T08:49:05;98710.64;;;4.92;90.92
50710;BME280;37033;49.994;21.992;2023-02-19T08:51:55;98715.88;;;4.96;90.92
50710;BME280;37033;49.994;21.992;2023-02-19T08:54:44;98716.40;;;4.92;90.66
50710;BME280;37033;49.994;21.992;2023-02-19T08:57:35;98724.08;;;4.86;90.80
50710;BME280;37033;49.994;21.992;2023-02-19T09:00:25;98720.79;;;4.80;91.27
50710;BME280;37033;49.994;21.992;2023-02-19T09:03:15;98729.98;;;4.73;91.50
50710;BME280;37033;49.994;21.992;2023-02-19T09:06:06;98738.77;;;4.67;91.74
50710;BME280;37033;49.994;21.992;2023-02-19T09:08:56;98738.36;;;4.63;91.62
50710;BME280;37033;49.994;21.992;2023-02-19T09:11:47;98737.71;;;4.60;91.76
50710;BME280;37033;49.994;21.992;2023-02-19T09:14:37;98734.70;;;4.59;91.54
50710;BME280;37033;49.994;21.992;2023-02-19T09:17:27;98734.01;;;4.57;91.74
50710;BME280;37033;49.994;21.992;2023-02-19T09:20:17;98733.19;;;4.57;91.50
50710;BME280;37033;49.994;21.992;2023-02-19T09:23:06;98722.34;;;4.57;91.57
50710;BME280;37033;49.994;21.992;2023-02-19T09:25:59;98725.16;;;4.59;91.52
50710;BME280;37033;49.994;21.992;2023-02-19T09:28:50;98724.08;;;4.60;91.43
50710;BME280;37033;49.994;21.992;2023-02-19T09:31:40;98723.87;;;4.62;91.77
50710;BME280;37033;49.994;21.992;2023-02-19T09:34:30;98724.29;;;4.62;91.61
50710;BME280;37033;49.994;21.992;2023-02-19T09:37:19;98728.67;;;4.62;91.61
50710;BME280;37033;49.994;21.992;2023-02-19T09:40:13;98724.44;;;4.63;91.78
50710;BME280;37033;49.994;21.992;2023-02-19T09:43:14;98722.84;;;4.62;91.64
50710;BME280;37033;49.994;21.992;2023-02-19T09:46:13;98726.00;;;4.61;91.63
50710;BME280;37033;49.994;21.992;2023-02-19T09:49:13;98722.39;;;4.60;91.60
50710;BME280;37033;49.994;21.992;2023-02-19T09:52:06;98720.75;;;4.59;91.76
50710;BME280;37033;49.994;21.992;2023-02-19T09:55:03;98721.50;;;4.57;91.76
50710;BME280;37033;49.994;21.992;2023-02-19T09:57:53;98726.65;;;4.56;91.91
50710;BME280;37033;49.994;21.992;2023-02-19T10:00:48;98731.67;;;4.53;92.16
50710;BME280;37033;49.994;21.992;2023-02-19T10:03:43;98728.65;;;4.49;92.24
50710;BME280;37033;49.994;21.992;2023-02-19T10:06:35;98729.98;;;4.46;92.27
50710;BME280;37033;49.994;21.992;2023-02-19T10:09:28;98729.22;;;4.44;92.37
50710;BME280;37033;49.994;21.992;2023-02-19T10:12:21;98729.88;;;4.40;92.42
50710;BME280;37033;49.994;21.992;2023-02-19T10:15:23;98730.33;;;4.35;92.57
50710;BME280;37033;49.994;21.992;2023-02-19T10:18:16;98730.96;;;4.32;92.58
50710;BME280;37033;49.994;21.992;2023-02-19T10:21:07;98734.95;;;4.30;92.61
50710;BME280;37033;49.994;21.992;2023-02-19T10:24:03;98731.99;;;4.26;92.57
50710;BME280;37033;49.994;21.992;2023-02-19T10:26:53;98732.77;;;4.25;92.61
50710;BME280;37033;49.994;21.992;2023-02-19T10:29:45;98732.70;;;4.26;92.46
50710;BME280;37033;49.994;21.992;2023-02-19T10:32:35;98731.76;;;4.29;92.53
50710;BME280;37033;49.994;21.992;2023-02-19T10:35:30;98726.29;;;4.29;92.39
50710;BME280;37033;49.994;21.992;2023-02-19T10:38:25;98728.44;;;4.31;92.37
50710;BME280;37033;49.994;21.992;2023-02-19T10:41:18;98730.55;;;4.31;92.27
50710;BME280;37033;49.994;21.992;2023-02-19T10:44:14;98724.84;;;4.30;92.15
50710;BME280;37033;49.994;21.992;2023-02-19T10:47:06;98726.48;;;4.32;92.15
50710;BME280;37033;49.994;21.992;2023-02-19T10:49:58;98730.66;;;4.34;92.12
50710;BME280;37033;49.994;21.992;2023-02-19T10:52:52;98728.99;;;4.35;92.13
50710;BME280;37033;49.994;21.992;2023-02-19T10:55:44;98730.62;;;4.34;91.95
50710;BME280;37033;49.994;21.992;2023-02-19T10:58:34;98730.33;;;4.34;91.95
50710;BME280;37033;49.994;21.992;2023-02-19T11:01:25;98729.91;;;4.33;91.83
50710;BME280;37033;49.994;21.992;2023-02-19T11:04:17;98727.09;;;4.27;91.61
50710;BME280;37033;49.994;21.992;2023-02-19T11:07:13;98730.17;;;4.25;91.50
50710;BME280;37033;49.994;21.992;2023-02-19T11:10:17;98734.70;;;4.23;91.48
50710;BME280;37033;49.994;21.992;2023-02-19T11:13:14;98733.43;;;4.21;91.43
50710;BME280;37033;49.994;21.992;2023-02-19T11:16:05;98737.98;;;4.19;91.39
50710;BME280;37033;49.994;21.992;2023-02-19T11:18:56;98744.23;;;4.13;91.16
50710;BME280;37033;49.994;21.992;2023-02-19T11:21:46;98747.60;;;4.01;91.07
50710;BME280;37033;49.994;21.992;2023-02-19T11:24:37;98744.66;;;3.93;91.05
50710;BME280;37033;49.994;21.992;2023-02-19T11:27:27;98747.84;;;3.86;91.11
50710;BME280;37033;49.994;21.992;2023-02-19T11:30:36;98749.70;;;3.80;91.07
50710;BME280;37033;49.994;21.992;2023-02-19T11:33:28;98745.98;;;3.77;91.16
50710;BME280;37033;49.994;21.992;2023-02-19T11:36:28;98752.02;;;3.74;91.07
50710;BME280;37033;49.994;21.992;2023-02-19T11:39:24;98756.91;;;3.72;90.96
50710;BME280;37033;49.994;21.992;2023-02-19T11:42:42;98764.67;;;3.65;90.64
50710;BME280;37033;49.994;21.992;2023-02-19T11:45:40;98768.67;;;3.53;90.24
50710;BME280;37033;49.994;21.992;2023-02-19T11:48:43;98769.29;;;3.44;90.16
50710;BME280;37033;49.994;21.992;2023-02-19T11:51:50;98768.14;;;3.36;90.06
50710;BME280;37033;49.994;21.992;2023-02-19T11:54:54;98773.65;;;3.32;90.16
50710;BME280;37033;49.994;21.992;2023-02-19T11:57:47;98776.13;;;3.28;90.17
50710;BME280;37033;49.994;21.992;2023-02-19T12:00:45;98782.83;;;3.26;90.28
50710;BME280;37033;49.994;21.992;2023-02-19T12:03:52;98784.64;;;3.24;90.27
50710;BME280;37033;49.994;21.992;2023-02-19T12:06:52;98790.11;;;3.23;90.26
50710;BME280;37033;49.994;21.992;2023-02-19T12:10:04;98789.36;;;3.22;90.24
50710;BME280;37033;49.994;21.992;2023-02-19T12:13:03;98794.53;;;3.17;90.08
50710;BME280;37033;49.994;21.992;2023-02-19T12:16:18;98796.73;;;3.12;89.96
50710;BME280;37033;49.994;21.992;2023-02-19T12:19:24;98802.92;;;3.08;89.88
50710;BME280;37033;49.994;21.992;2023-02-19T12:22:28;98806.41;;;3.03;90.00
50710;BME280;37033;49.994;21.992;2023-02-19T12:25:24;98803.23;;;2.99;89.92
50710;BME280;37033;49.994;21.992;2023-02-19T12:28:46;98809.04;;;2.98;90.00
50710;BME280;37033;49.994;21.992;2023-02-19T12:35:20;98811.94;;;2.98;90.04
50710;BME280;37033;49.994;21.992;2023-02-19T12:38:21;98816.11;;;2.94;90.02
50710;BME280;37033;49.994;21.992;2023-02-19T12:41:20;98816.48;;;2.93;90.10
50710;BME280;37033;49.994;21.992;2023-02-19T12:44:17;98821.80;;;2.92;90.03
50710;BME280;37033;49.994;21.992;2023-02-19T12:47:11;98821.22;;;2.90;90.13
50710;BME280;37033;49.994;21.992;2023-02-19T12:50:13;98828.00;;;2.90;90.06
50710;BME280;37033;49.994;21.992;2023-02-19T12:53:13;98837.17;;;2.88;90.09
50710;BME280;37033;49.994;21.992;2023-02-19T12:56:10;98835.59;;;2.84;90.07
50710;BME280;37033;49.994;21.992;2023-02-19T12:59:07;98834.02;;;2.82;90.25
50710;BME280;37033;49.994;21.992;2023-02-19T13:02:02;98830.38;;;2.82;90.25
50710;BME280;37033;49.994;21.992;2023-02-19T13:04:57;98836.76;;;2.84;90.45
50710;BME280;37033;49.994;21.992;2023-02-19T13:07:57;98844.88;;;2.80;90.48
50710;BME280;37033;49.994;21.992;2023-02-19T13:10:52;98839.76;;;2.79;90.51
50710;BME280;37033;49.994;21.992;2023-02-19T13:13:46;98846.48;;;2.78;90.47
50710;BME280;37033;49.994;21.992;2023-02-19T13:16:40;98844.71;;;2.76;90.47
50710;BME280;37033;49.994;21.992;2023-02-19T13:19:33;98843.98;;;2.76;90.53
50710;BME280;37033;49.994;21.992;2023-02-19T13:22:29;98849.38;;;2.79;90.52
50710;BME280;37033;49.994;21.992;2023-02-19T13:25:50;98844.18;;;2.83;90.68
50710;BME280;37033;49.994;21.992;2023-02-19T13:29:00;98845.96;;;2.87;90.62
50710;BME280;37033;49.994;21.992;2023-02-19T13:32:12;98848.36;;;2.93;90.58
50710;BME280;37033;49.994;21.992;2023-02-19T13:35:19;98854.95;;;2.98;90.54
50710;BME280;37033;49.994;21.992;2023-02-19T13:38:10;98858.12;;;3.02;90.58
50710;BME280;37033;49.994;21.992;2023-02-19T13:41:01;98855.98;;;3.06;90.58
50710;BME280;37033;49.994;21.992;2023-02-19T13:43:57;98859.65;;;3.08;90.48
50710;BME280;37033;49.994;21.992;2023-02-19T13:46:49;98864.85;;;3.11;90.58
50710;BME280;37033;49.994;21.992;2023-02-19T13:49:41;98869.69;;;3.20;90.64
50710;BME280;37033;49.994;21.992;2023-02-19T13:52:41;98874.98;;;3.22;90.60
50710;BME280;37033;49.994;21.992;2023-02-19T13:55:53;98883.05;;;3.23;90.56
50710;BME280;37033;49.994;21.992;2023-02-19T13:59:01;98885.11;;;3.23;90.44
50710;BME280;37033;49.994;21.992;2023-02-19T14:02:13;98900.27;;;3.22;90.51
50710;BME280;37033;49.994;21.992;2023-02-19T14:05:13;98896.84;;;3.18;90.55
50710;BME280;37033;49.994;21.992;2023-02-19T14:08:47;98897.05;;;3.11;90.50
50710;BME280;37033;49.994;21.992;2023-02-19T14:12:03;98904.36;;;3.06;90.51
50710;BME280;37033;49.994;21.992;2023-02-19T14:14:54;98909.68;;;3.03;90.50
50710;BME280;37033;49.994;21.992;2023-02-19T14:17:44;98912.88;;;3.00;90.50
50710;BME280;37033;49.994;21.992;2023-02-19T14:20:44;98916.27;;;2.97;90.51
50710;BME280;37033;49.994;21.992;2023-02-19T14:23:34;98915.19;;;2.92;90.46
50710;BME280;37033;49.994;21.992;2023-02-19T14:26:25;98920.89;;;2.90;90.50
50710;BME280;37033;49.994;21.992;2023-02-19T14:29:16;98924.52;;;2.90;90.58
50710;BME280;37033;49.994;21.992;2023-02-19T14:32:07;98922.01;;;2.90;90.50
50710;BME280;37033;49.994;21.992;2023-02-19T14:35:00;98925.85;;;2.89;90.45
50710;BME280;37033;49.994;21.992;2023-02-19T14:37:51;98934.47;;;2.91;90.54
50710;BME280;37033;49.994;21.992;2023-02-19T14:40:43;98939.52;;;2.90;90.49
50710;BME280;37033;49.994;21.992;2023-02-19T14:43:35;98941.19;;;2.88;90.36
50710;BME280;37033;49.994;21.992;2023-02-19T14:46:30;98941.48;;;2.88;90.48
50710;BME280;37033;49.994;21.992;2023-02-19T14:49:26;98940.91;;;2.89;90.46
50710;BME280;37033;49.994;21.992;2023-02-19T14:52:19;98940.79;;;2.88;90.55
50710;BME280;37033;49.994;21.992;2023-02-19T14:55:20;98939.55;;;2.87;90.46
50710;BME280;37033;49.994;21.992;2023-02-19T14:58:14;98938.27;;;2.87;90.54
50710;BME280;37033;49.994;21.992;2023-02-19T15:01:06;98947.14;;;2.86;90.58
50710;BME280;37033;49.994;21.992;2023-02-19T15:04:22;98947.89;;;2.85;90.68
50710;BME280;37033;49.994;21.992;2023-02-19T15:07:16;98951.84;;;2.82;90.60
50710;BME280;37033;49.994;21.992;2023-02-19T15:10:10;98958.23;;;2.80;90.70
50710;BME280;37033;49.994;21.992;2023-02-19T15:13:02;98960.95;;;2.79;90.80
50710;BME280;37033;49.994;21.992;2023-02-19T15:15:53;98963.42;;;2.77;90.78
50710;BME280;37033;49.994;21.992;2023-02-19T15:18:45;98961.69;;;2.75;90.87
50710;BME280;37033;49.994;21.992;2023-02-19T15:21:38;98966.75;;;2.73;90.82
50710;BME280;37033;49.994;21.992;2023-02-19T15:24:31;98973.78;;;2.73;90.86